Airport View

Enter AWOS ICAO identifier for current METAR.

ex. KFNL

K6S5 171015Z AUTO 18013KT 10SM OVC060 08/M03 A3022 RMK AO2

17 Nov 2019 10:29

Frequency: 119.825

Phone: 406-375-9149

Other Area AWOS: KMSO - KP69 - KSMN - KGIC

TAF KMSO 170535Z 1706/1806 VRB03KT P6SM OVC070 FM171000 30002KT P6SM VCSH OVC050 FM171800 24004KT P6SM -SHRA BKN030 OVC050 FM172200 32005KT P6SM VCSH OVC050